createdAt,value
2023-02-11T00:01:34.485Z,-7.60
2023-02-11T00:04:03.955Z,-7.60
2023-02-11T00:06:33.898Z,-7.59
2023-02-11T00:09:03.112Z,-7.59
2023-02-11T00:11:31.526Z,-7.58
2023-02-11T00:14:02.397Z,-7.58
2023-02-11T00:16:32.598Z,-7.60
2023-02-11T00:19:01.762Z,-7.61
2023-02-11T00:21:29.851Z,-7.62
2023-02-11T00:24:00.094Z,-7.64
2023-02-11T00:26:35.261Z,-7.65
2023-02-11T00:29:04.172Z,-7.65
2023-02-11T00:31:34.067Z,-7.67
2023-02-11T00:34:02.505Z,-7.69
2023-02-11T00:36:31.710Z,-7.73
2023-02-11T00:39:00.131Z,-7.73
2023-02-11T00:41:29.938Z,-7.75
2023-02-11T00:44:01.888Z,-7.85
2023-02-11T00:46:30.233Z,-7.90
2023-02-11T00:48:59.276Z,-7.89
2023-02-11T00:51:28.711Z,-7.79
2023-02-11T00:53:57.281Z,-7.77
2023-02-11T00:56:25.868Z,-7.77
2023-02-11T00:58:54.270Z,-7.76
2023-02-11T01:01:22.975Z,-7.76
2023-02-11T01:03:51.498Z,-7.76
2023-02-11T01:06:19.966Z,-7.79
2023-02-11T01:08:47.983Z,-7.79
2023-02-11T01:11:19.886Z,-7.80
2023-02-11T01:13:49.485Z,-7.81
2023-02-11T01:16:18.806Z,-7.88
2023-02-11T01:18:47.795Z,-8.00
2023-02-11T01:21:19.516Z,-8.01
2023-02-11T01:23:47.830Z,-8.02
2023-02-11T01:26:16.966Z,-8.03
2023-02-11T01:28:45.123Z,-8.07
2023-02-11T01:31:13.242Z,-8.04
2023-02-11T01:33:41.782Z,-8.04
2023-02-11T01:36:12.256Z,-8.07
2023-02-11T01:38:41.280Z,-8.07
2023-02-11T01:41:12.139Z,-8.08
2023-02-11T01:43:44.693Z,-8.12
2023-02-11T01:46:17.489Z,-8.16
2023-02-11T01:48:49.658Z,-8.18
2023-02-11T01:51:22.672Z,-8.24
2023-02-11T01:54:10.859Z,-8.25
2023-02-11T01:57:03.481Z,-8.29
2023-02-11T01:59:37.781Z,-8.32
2023-02-11T02:02:10.032Z,-8.34
2023-02-11T02:04:54.194Z,-8.38
2023-02-11T02:07:48.401Z,-8.42
2023-02-11T02:10:21.134Z,-8.47
2023-02-11T02:12:49.404Z,-8.53
2023-02-11T02:15:34.686Z,-8.59
2023-02-11T02:18:51.644Z,-8.60
2023-02-11T02:21:50.698Z,-8.63
2023-02-11T02:24:56.490Z,-8.67
2023-02-11T02:27:54.073Z,-8.69
2023-02-11T02:30:48.511Z,-8.68
2023-02-11T02:33:23.853Z,-8.67
2023-02-11T02:36:22.668Z,-8.65
2023-02-11T02:39:08.000Z,-8.63
2023-02-11T02:41:37.962Z,-8.61
2023-02-11T02:44:08.306Z,-8.60
2023-02-11T02:46:36.860Z,-8.59
2023-02-11T02:49:12.720Z,-8.58
2023-02-11T02:51:49.472Z,-8.60
2023-02-11T02:54:29.528Z,-8.62
2023-02-11T02:57:31.015Z,-8.64
2023-02-11T03:00:25.321Z,-8.64
2023-02-11T03:03:08.234Z,-8.66
2023-02-11T03:06:01.608Z,-8.69
2023-02-11T03:08:35.418Z,-8.71
2023-02-11T03:11:05.636Z,-8.75
2023-02-11T03:13:36.943Z,-8.78
2023-02-11T03:16:11.655Z,-8.81
2023-02-11T03:18:44.427Z,-8.83
2023-02-11T03:21:15.942Z,-8.90
2023-02-11T03:23:55.339Z,-8.94
2023-02-11T03:26:33.014Z,-8.93
2023-02-11T03:29:44.479Z,-8.92
2023-02-11T03:32:23.756Z,-8.89
2023-02-11T03:35:01.002Z,-8.86
2023-02-11T03:37:40.214Z,-8.84
2023-02-11T03:40:23.309Z,-8.83
2023-02-11T03:42:57.782Z,-8.83
2023-02-11T03:45:27.200Z,-8.82
2023-02-11T03:48:00.645Z,-8.81
2023-02-11T03:50:33.301Z,-8.82
2023-02-11T03:53:03.299Z,-8.87
2023-02-11T03:55:34.933Z,-8.94
2023-02-11T03:58:02.961Z,-9.00
2023-02-11T04:00:34.928Z,-9.11
2023-02-11T04:03:04.787Z,-9.21
2023-02-11T04:05:33.370Z,-9.26
2023-02-11T04:08:01.832Z,-9.31
2023-02-11T04:10:29.977Z,-9.34
2023-02-11T04:12:58.330Z,-9.37
2023-02-11T04:15:26.457Z,-9.39
2023-02-11T04:17:54.513Z,-9.41
2023-02-11T04:20:22.560Z,-9.47
2023-02-11T04:22:50.844Z,-9.55
2023-02-11T04:25:19.074Z,-9.59
2023-02-11T04:27:47.094Z,-9.60
2023-02-11T04:30:15.154Z,-9.60
2023-02-11T04:32:43.179Z,-9.60
2023-02-11T04:35:11.285Z,-9.60
2023-02-11T04:37:39.459Z,-9.61
2023-02-11T04:40:07.877Z,-9.67
2023-02-11T04:42:35.853Z,-9.73
2023-02-11T04:45:04.952Z,-9.81
2023-02-11T04:47:32.962Z,-9.87
2023-02-11T04:50:00.859Z,-9.86
2023-02-11T04:52:28.928Z,-9.87
2023-02-11T04:54:57.104Z,-9.86
2023-02-11T04:57:25.093Z,-9.83
2023-02-11T04:59:53.064Z,-9.82
2023-02-11T05:02:21.087Z,-9.84
2023-02-11T05:04:49.084Z,-9.88
2023-02-11T05:07:16.976Z,-10.00
2023-02-11T05:09:44.926Z,-10.09
2023-02-11T05:12:12.892Z,-10.12
2023-02-11T05:14:40.954Z,-10.11
2023-02-11T05:17:10.211Z,-10.15
2023-02-11T05:19:39.860Z,-10.16
2023-02-11T05:22:07.783Z,-10.14
2023-02-11T05:24:35.848Z,-10.10
2023-02-11T05:27:03.859Z,-10.05
2023-02-11T05:29:32.080Z,-10.01
2023-02-11T05:32:00.345Z,-9.98
2023-02-11T05:34:28.412Z,-9.94
2023-02-11T05:36:56.564Z,-9.91
2023-02-11T05:39:24.727Z,-9.88
2023-02-11T05:41:52.905Z,-9.85
2023-02-11T05:44:21.303Z,-9.85
2023-02-11T05:46:49.536Z,-9.88
2023-02-11T05:49:18.649Z,-9.89
2023-02-11T05:51:46.848Z,-9.90
2023-02-11T05:54:14.976Z,-9.86
2023-02-11T05:56:44.892Z,-9.78
2023-02-11T05:59:16.342Z,-9.70
2023-02-11T06:01:44.360Z,-9.66
2023-02-11T06:04:12.623Z,-9.64
2023-02-11T06:06:40.713Z,-9.63
2023-02-11T06:09:11.136Z,-9.66
2023-02-11T06:11:39.153Z,-9.57
2023-02-11T06:14:07.011Z,-9.47
2023-02-11T06:16:35.105Z,-9.37
2023-02-11T06:19:03.357Z,-9.23
2023-02-11T06:21:43.013Z,-9.01
2023-02-11T06:24:12.723Z,-8.80
2023-02-11T06:26:40.891Z,-8.70
2023-02-11T06:29:09.160Z,-8.68
2023-02-11T06:31:39.361Z,-8.63
2023-02-11T06:34:09.574Z,-8.50
2023-02-11T06:36:41.086Z,-8.21
2023-02-11T06:39:12.975Z,-7.88
2023-02-11T06:41:41.112Z,-7.55
2023-02-11T06:44:09.209Z,-7.27
2023-02-11T06:46:37.302Z,-7.06
2023-02-11T06:49:05.438Z,-6.85
2023-02-11T06:51:33.490Z,-6.59
2023-02-11T06:54:01.645Z,-6.24
2023-02-11T06:56:30.473Z,-5.98
2023-02-11T06:58:59.137Z,-5.80
2023-02-11T07:01:27.891Z,-5.72
2023-02-11T07:03:56.308Z,-5.64
2023-02-11T07:06:28.091Z,-5.61
2023-02-11T07:08:57.156Z,-5.52
2023-02-11T07:11:27.998Z,-5.49
2023-02-11T07:14:01.078Z,-5.41
2023-02-11T07:16:31.129Z,-5.36
2023-02-11T07:18:59.226Z,-5.33
2023-02-11T07:21:27.883Z,-5.24
2023-02-11T07:23:56.051Z,-5.13
2023-02-11T07:26:24.361Z,-5.01
2023-02-11T07:28:53.113Z,-4.90
2023-02-11T07:31:24.825Z,-4.79
2023-02-11T07:33:55.352Z,-4.66
2023-02-11T07:36:23.872Z,-4.51
2023-02-11T07:38:51.899Z,-4.43
2023-02-11T07:41:22.398Z,-4.34
2023-02-11T07:43:51.774Z,-4.22
2023-02-11T07:46:25.536Z,-4.31
2023-02-11T07:48:53.809Z,-4.44
2023-02-11T07:51:24.824Z,-4.58
2023-02-11T07:53:54.326Z,-4.75
2023-02-11T07:56:23.773Z,-4.93
2023-02-11T07:58:52.037Z,-4.96
2023-02-11T08:01:25.179Z,-4.95
2023-02-11T08:03:54.300Z,-5.02
2023-02-11T08:06:24.678Z,-5.03
2023-02-11T08:08:53.437Z,-5.07
2023-02-11T08:11:24.931Z,-5.12
2023-02-11T08:13:54.431Z,-5.16
2023-02-11T08:16:32.583Z,-5.17
2023-02-11T08:19:03.582Z,-5.23
2023-02-11T08:21:31.996Z,-5.23
2023-02-11T08:24:01.698Z,-5.15
2023-02-11T08:26:32.999Z,-5.18
2023-02-11T08:29:05.518Z,-5.30
2023-02-11T08:31:35.998Z,-5.47
2023-02-11T08:34:04.889Z,-5.64
2023-02-11T08:36:36.214Z,-5.86
2023-02-11T08:39:22.693Z,-5.96
2023-02-11T08:41:56.992Z,-5.96
2023-02-11T08:44:25.136Z,-5.94
2023-02-11T08:46:54.022Z,-5.92
2023-02-11T08:49:22.469Z,-5.86
2023-02-11T08:51:51.476Z,-5.77
2023-02-11T08:54:19.667Z,-5.69
2023-02-11T08:56:51.604Z,-5.58
2023-02-11T08:59:20.636Z,-5.51
2023-02-11T09:01:49.812Z,-5.43
2023-02-11T09:04:18.196Z,-5.39
2023-02-11T09:06:46.354Z,-5.33
2023-02-11T09:09:16.257Z,-5.14
2023-02-11T09:11:45.721Z,-4.94
2023-02-11T09:14:25.412Z,-4.97
2023-02-11T09:16:53.778Z,-5.04
2023-02-11T09:19:23.226Z,-5.11
2023-02-11T09:21:51.407Z,-5.11
2023-02-11T09:24:19.544Z,-5.03
2023-02-11T09:26:47.763Z,-4.95
2023-02-11T09:29:15.989Z,-4.90
2023-02-11T09:31:44.134Z,-4.90
2023-02-11T09:34:13.310Z,-5.00
2023-02-11T09:36:42.541Z,-4.97
2023-02-11T09:39:20.822Z,-4.84
2023-02-11T09:41:51.834Z,-4.76
2023-02-11T09:44:33.497Z,-4.76
2023-02-11T09:47:24.340Z,-4.71
2023-02-11T09:50:01.785Z,-4.69
2023-02-11T09:52:51.886Z,-4.67
2023-02-11T09:55:25.238Z,-4.58
2023-02-11T09:57:53.913Z,-4.47
2023-02-11T10:00:32.512Z,-4.41
2023-02-11T10:03:38.557Z,-4.37
2023-02-11T10:06:16.183Z,-4.26
2023-02-11T10:09:06.006Z,-4.19
2023-02-11T10:11:39.437Z,-4.10
2023-02-11T10:14:17.734Z,-3.99
2023-02-11T10:17:37.241Z,-3.91
2023-02-11T10:20:31.068Z,-3.90
2023-02-11T10:23:02.088Z,-3.89
2023-02-11T10:25:36.761Z,-3.87
2023-02-11T10:28:21.372Z,-3.88
2023-02-11T10:30:59.600Z,-3.79
2023-02-11T10:33:32.738Z,-3.55
2023-02-11T10:36:01.119Z,-3.43
2023-02-11T10:38:29.206Z,-3.29
2023-02-11T10:40:57.160Z,-3.08
2023-02-11T10:43:29.279Z,-2.85
2023-02-11T10:45:59.589Z,-2.62
2023-02-11T10:48:41.211Z,-2.37
2023-02-11T10:51:18.418Z,-2.06
2023-02-11T10:54:19.587Z,-1.80
2023-02-11T10:56:52.117Z,-1.57
2023-02-11T10:59:34.132Z,-1.50
2023-02-11T11:02:19.329Z,-1.52
2023-02-11T11:04:47.981Z,-1.46
2023-02-11T11:07:23.789Z,-1.31
2023-02-11T11:10:03.320Z,-1.20
2023-02-11T11:12:46.755Z,-1.16
2023-02-11T11:15:22.992Z,-1.02
2023-02-11T11:18:20.786Z,-0.93
2023-02-11T11:21:16.210Z,-0.90
2023-02-11T11:23:55.364Z,-0.80
2023-02-11T11:26:26.880Z,-0.79
2023-02-11T11:29:08.025Z,-0.86
2023-02-11T11:32:06.226Z,-0.79
2023-02-11T11:34:40.892Z,-0.65
2023-02-11T11:37:20.205Z,-0.51
2023-02-11T11:40:10.701Z,-0.44
2023-02-11T11:42:39.987Z,-0.37
2023-02-11T11:45:20.448Z,-0.23
2023-02-11T11:48:22.912Z,-0.17
2023-02-11T11:50:58.472Z,-0.15
2023-02-11T11:53:53.342Z,-0.21
2023-02-11T11:56:32.668Z,-0.35
2023-02-11T11:59:09.605Z,-0.40
2023-02-11T12:02:29.021Z,-0.39
2023-02-11T12:05:15.835Z,-0.53
2023-02-11T12:07:53.096Z,-0.60
2023-02-11T12:10:34.610Z,-0.51
2023-02-11T12:13:05.578Z,-0.40
2023-02-11T12:15:58.666Z,-0.35
2023-02-11T12:18:54.202Z,-0.20
2023-02-11T12:21:29.567Z,-0.11
2023-02-11T12:24:18.953Z,-0.10
2023-02-11T12:26:58.136Z,-0.00
2023-02-11T12:29:59.039Z,0.09
2023-02-11T12:32:29.827Z,0.18
2023-02-11T12:35:16.324Z,0.27
2023-02-11T12:37:59.980Z,0.27
2023-02-11T12:40:45.246Z,0.16
2023-02-11T12:43:35.236Z,0.11
2023-02-11T12:46:31.633Z,0.22
2023-02-11T12:49:23.764Z,0.32
2023-02-11T12:52:04.025Z,0.35
2023-02-11T12:54:47.183Z,0.33
2023-02-11T12:57:46.723Z,0.26
2023-02-11T13:00:22.278Z,0.21
2023-02-11T13:03:11.917Z,0.18
2023-02-11T13:05:49.792Z,0.17
2023-02-11T13:08:33.048Z,0.19
2023-02-11T13:11:19.050Z,0.10
2023-02-11T13:14:04.842Z,0.12
2023-02-11T13:16:40.757Z,0.04
2023-02-11T13:19:27.814Z,-0.06
2023-02-11T13:22:21.089Z,-0.11
2023-02-11T13:25:06.759Z,-0.07
2023-02-11T13:27:38.252Z,-0.06
2023-02-11T13:30:37.122Z,-0.05
2023-02-11T13:33:27.523Z,-0.02
2023-02-11T13:35:58.578Z,0.04
2023-02-11T13:38:31.968Z,0.04
2023-02-11T13:41:06.278Z,0.09
2023-02-11T13:43:36.712Z,0.16
2023-02-11T13:46:11.421Z,0.21
2023-02-11T13:48:46.896Z,0.23
2023-02-11T13:51:33.808Z,0.20
2023-02-11T13:54:03.344Z,0.16
2023-02-11T13:56:36.196Z,0.13
2023-02-11T13:59:25.862Z,0.11
2023-02-11T14:02:14.189Z,0.04
2023-02-11T14:05:22.587Z,-0.07
2023-02-11T14:08:30.963Z,-0.17
2023-02-11T14:11:02.342Z,-0.16
2023-02-11T14:13:33.376Z,-0.10
2023-02-11T14:16:20.482Z,-0.07
2023-02-11T14:18:53.477Z,-0.09
2023-02-11T14:21:22.264Z,-0.11
2023-02-11T14:23:56.148Z,-0.14
2023-02-11T14:26:45.682Z,-0.24
2023-02-11T14:29:20.417Z,-0.33
2023-02-11T14:32:10.676Z,-0.40
2023-02-11T14:35:03.545Z,-0.46
2023-02-11T14:37:36.188Z,-0.49
2023-02-11T14:40:35.091Z,-0.53
2023-02-11T14:43:29.361Z,-0.58
2023-02-11T14:46:00.320Z,-0.66
2023-02-11T14:48:35.542Z,-0.75
2023-02-11T14:51:05.286Z,-0.86
2023-02-11T14:53:37.037Z,-0.96
2023-02-11T14:56:18.740Z,-1.00
2023-02-11T14:58:49.433Z,-1.03
2023-02-11T15:01:32.175Z,-1.10
2023-02-11T15:04:03.547Z,-1.18
2023-02-11T15:06:34.716Z,-1.27
2023-02-11T15:09:17.107Z,-1.35
2023-02-11T15:11:50.761Z,-1.45
2023-02-11T15:14:32.121Z,-1.53
2023-02-11T15:17:04.021Z,-1.59
2023-02-11T15:19:38.635Z,-1.65
2023-02-11T15:22:27.522Z,-1.73
2023-02-11T15:25:15.046Z,-1.81
2023-02-11T15:27:49.344Z,-1.87
2023-02-11T15:30:23.851Z,-1.92
2023-02-11T15:33:00.186Z,-1.95
2023-02-11T15:35:41.372Z,-2.00
2023-02-11T15:38:13.414Z,-2.09
2023-02-11T15:40:53.694Z,-2.16
2023-02-11T15:43:22.749Z,-2.23
2023-02-11T15:45:51.396Z,-2.30
2023-02-11T15:48:27.456Z,-2.34
2023-02-11T15:51:02.805Z,-2.36
2023-02-11T15:53:43.679Z,-2.39
2023-02-11T15:56:24.490Z,-2.42
2023-02-11T15:58:56.009Z,-2.44
2023-02-11T16:01:34.311Z,-2.49
2023-02-11T16:04:05.761Z,-2.54
2023-02-11T16:06:41.990Z,-2.52
2023-02-11T16:09:12.942Z,-2.51
2023-02-11T16:11:47.447Z,-2.50
2023-02-11T16:14:27.845Z,-2.47
2023-02-11T16:17:22.775Z,-2.44
2023-02-11T16:19:53.223Z,-2.40
2023-02-11T16:22:35.556Z,-2.38
2023-02-11T16:25:04.939Z,-2.36
2023-02-11T16:27:41.852Z,-2.36
2023-02-11T16:30:39.067Z,-2.35
2023-02-11T16:33:12.249Z,-2.35
2023-02-11T16:35:40.609Z,-2.39
2023-02-11T16:38:08.761Z,-2.43
2023-02-11T16:40:37.571Z,-2.48
2023-02-11T16:43:06.615Z,-2.51
2023-02-11T16:45:39.204Z,-2.55
2023-02-11T16:48:09.752Z,-2.59
2023-02-11T16:50:38.052Z,-2.64
2023-02-11T16:53:06.698Z,-2.71
2023-02-11T16:55:35.313Z,-2.71
2023-02-11T16:58:03.415Z,-2.74
2023-02-11T17:00:31.672Z,-2.79
2023-02-11T17:02:59.785Z,-2.83
2023-02-11T17:05:28.041Z,-2.88
2023-02-11T17:07:56.001Z,-2.94
2023-02-11T17:10:24.567Z,-2.98
2023-02-11T17:12:53.637Z,-3.02
2023-02-11T17:15:21.615Z,-3.06
2023-02-11T17:17:49.665Z,-3.07
2023-02-11T17:20:17.912Z,-3.07
2023-02-11T17:22:46.067Z,-3.07
2023-02-11T17:25:14.060Z,-3.05
2023-02-11T17:27:42.215Z,-3.05
2023-02-11T17:30:11.689Z,-3.04
2023-02-11T17:32:39.703Z,-3.02
2023-02-11T17:35:08.250Z,-2.99
2023-02-11T17:37:36.333Z,-2.97
2023-02-11T17:40:04.673Z,-2.99
2023-02-11T17:42:32.696Z,-3.02
2023-02-11T17:45:00.743Z,-3.07
2023-02-11T17:47:30.401Z,-3.12
2023-02-11T17:49:58.728Z,-3.17
2023-02-11T17:52:28.299Z,-3.20
2023-02-11T17:54:57.970Z,-3.21
2023-02-11T17:57:26.061Z,-3.22
2023-02-11T17:59:54.111Z,-3.23
2023-02-11T18:02:22.163Z,-3.21
2023-02-11T18:04:50.766Z,-3.17
2023-02-11T18:07:20.135Z,-3.13
2023-02-11T18:09:48.305Z,-3.06
2023-02-11T18:12:18.324Z,-3.01
2023-02-11T18:14:46.373Z,-2.94
2023-02-11T18:17:14.294Z,-2.86
2023-02-11T18:19:42.219Z,-2.74
2023-02-11T18:22:10.341Z,-2.63
2023-02-11T18:24:38.554Z,-2.52
2023-02-11T18:27:06.642Z,-2.43
2023-02-11T18:29:35.800Z,-2.37
2023-02-11T18:32:04.352Z,-2.33
2023-02-11T18:34:33.276Z,-2.30
2023-02-11T18:37:01.454Z,-2.29
2023-02-11T18:39:29.415Z,-2.30
2023-02-11T18:41:59.742Z,-2.31
2023-02-11T18:44:27.918Z,-2.31
2023-02-11T18:46:56.128Z,-2.31
2023-02-11T18:49:24.139Z,-2.34
2023-02-11T18:51:52.185Z,-2.39
2023-02-11T18:54:22.804Z,-2.39
2023-02-11T18:56:50.802Z,-2.42
2023-02-11T18:59:18.845Z,-2.46
2023-02-11T19:01:47.149Z,-2.48
2023-02-11T19:04:19.941Z,-2.53
2023-02-11T19:06:49.867Z,-2.54
2023-02-11T19:09:20.106Z,-2.58
2023-02-11T19:11:49.942Z,-2.63
2023-02-11T19:14:24.578Z,-2.65
2023-02-11T19:16:57.117Z,-2.65
2023-02-11T19:19:28.362Z,-2.66
2023-02-11T19:21:58.648Z,-2.66
2023-02-11T19:24:27.786Z,-2.64
2023-02-11T19:27:02.028Z,-2.61
2023-02-11T19:29:33.519Z,-2.59
2023-02-11T19:32:03.461Z,-2.56
2023-02-11T19:34:32.694Z,-2.55
2023-02-11T19:37:01.847Z,-2.54
2023-02-11T19:39:29.891Z,-2.53
2023-02-11T19:41:57.886Z,-2.51
2023-02-11T19:44:25.753Z,-2.50
2023-02-11T19:46:54.971Z,-2.48
2023-02-11T19:49:24.696Z,-2.47
2023-02-11T19:51:55.447Z,-2.45
2023-02-11T19:54:23.882Z,-2.41
2023-02-11T19:56:52.781Z,-2.37
2023-02-11T19:59:21.061Z,-2.32
2023-02-11T20:01:49.349Z,-2.25
2023-02-11T20:04:17.499Z,-2.18
2023-02-11T20:06:48.433Z,-2.12
2023-02-11T20:09:16.535Z,-2.06
2023-02-11T20:11:44.916Z,-2.05
2023-02-11T20:14:14.965Z,-2.05
2023-02-11T20:16:49.136Z,-2.05
2023-02-11T20:19:21.761Z,-2.06
2023-02-11T20:21:53.409Z,-2.08
2023-02-11T20:24:22.659Z,-2.13
2023-02-11T20:26:55.786Z,-2.15
2023-02-11T20:29:25.289Z,-2.19
2023-02-11T20:31:53.960Z,-2.21
2023-02-11T20:34:22.315Z,-2.19
2023-02-11T20:36:53.625Z,-2.23
2023-02-11T20:39:23.617Z,-2.29
2023-02-11T20:41:53.470Z,-2.30
2023-02-11T20:44:23.046Z,-2.31
2023-02-11T20:46:52.188Z,-2.34
2023-02-11T20:49:22.939Z,-2.36
2023-02-11T20:51:53.730Z,-2.32
2023-02-11T20:54:23.766Z,-2.30
2023-02-11T20:56:53.883Z,-2.29
2023-02-11T20:59:22.376Z,-2.27
2023-02-11T21:01:56.031Z,-2.28
2023-02-11T21:04:30.483Z,-2.32
2023-02-11T21:07:01.250Z,-2.35
2023-02-11T21:09:31.644Z,-2.36
2023-02-11T21:12:00.627Z,-2.35
2023-02-11T21:14:28.932Z,-2.35
2023-02-11T21:16:57.686Z,-2.37
2023-02-11T21:19:25.788Z,-2.36
2023-02-11T21:21:55.280Z,-2.35
2023-02-11T21:24:23.890Z,-2.34
2023-02-11T21:26:51.836Z,-2.33
2023-02-11T21:29:19.744Z,-2.32
2023-02-11T21:31:47.956Z,-2.32
2023-02-11T21:34:16.361Z,-2.32
2023-02-11T21:36:48.053Z,-2.30
2023-02-11T21:39:15.940Z,-2.25
2023-02-11T21:41:43.834Z,-2.21
2023-02-11T21:44:11.977Z,-2.15
2023-02-11T21:46:40.018Z,-2.11
2023-02-11T21:49:07.930Z,-2.08
2023-02-11T21:51:36.391Z,-2.10
2023-02-11T21:54:04.550Z,-2.09
2023-02-11T21:56:34.339Z,-2.07
2023-02-11T21:59:02.465Z,-2.04
2023-02-11T22:01:33.305Z,-2.04
2023-02-11T22:04:01.328Z,-2.07
2023-02-11T22:06:31.725Z,-2.11
2023-02-11T22:09:04.444Z,-2.15
2023-02-11T22:11:32.407Z,-2.17
2023-02-11T22:14:00.515Z,-2.22
2023-02-11T22:16:29.548Z,-2.27
2023-02-11T22:18:58.792Z,-2.29
2023-02-11T22:21:28.129Z,-2.30
2023-02-11T22:23:56.392Z,-2.31
2023-02-11T22:26:26.430Z,-2.30
2023-02-11T22:28:55.077Z,-2.32
2023-02-11T22:31:26.204Z,-2.32
2023-02-11T22:33:54.886Z,-2.36
2023-02-11T22:36:35.487Z,-2.39
2023-02-11T22:39:11.007Z,-2.40
2023-02-11T22:41:41.876Z,-2.41
2023-02-11T22:44:11.085Z,-2.45
2023-02-11T22:46:39.505Z,-2.50
2023-02-11T22:49:07.708Z,-2.54
2023-02-11T22:51:35.849Z,-2.55
2023-02-11T22:54:06.685Z,-2.52
2023-02-11T22:56:35.249Z,-2.51
2023-02-11T22:59:06.126Z,-2.50
2023-02-11T23:01:35.402Z,-2.50
2023-02-11T23:04:05.905Z,-2.45
2023-02-11T23:06:34.311Z,-2.40
2023-02-11T23:09:05.192Z,-2.36
2023-02-11T23:11:33.887Z,-2.35
2023-02-11T23:14:02.659Z,-2.32
2023-02-11T23:16:33.639Z,-2.31
2023-02-11T23:19:05.577Z,-2.31
2023-02-11T23:21:36.628Z,-2.34
2023-02-11T23:24:11.972Z,-2.41
2023-02-11T23:26:42.692Z,-2.44
2023-02-11T23:29:11.719Z,-2.44
2023-02-11T23:31:43.487Z,-2.49
2023-02-11T23:34:17.215Z,-2.57
2023-02-11T23:36:45.152Z,-2.61
2023-02-11T23:39:15.967Z,-2.63
2023-02-11T23:41:44.634Z,-2.66
2023-02-11T23:44:13.226Z,-2.71
2023-02-11T23:46:41.226Z,-2.73
2023-02-11T23:49:10.124Z,-2.76
2023-02-11T23:51:38.079Z,-2.76
2023-02-11T23:54:06.045Z,-2.70
2023-02-11T23:56:36.955Z,-2.62
2023-02-11T23:59:05.655Z,-2.63
